createdAt,value
2023-11-15T00:00:10.677Z,8.00
2023-11-15T00:02:39.013Z,8.00
2023-11-15T00:05:07.107Z,8.00
2023-11-15T00:07:34.307Z,8.00
2023-11-15T00:10:01.376Z,8.00
2023-11-15T00:12:28.402Z,8.00
2023-11-15T00:14:56.215Z,8.00
2023-11-15T00:17:24.165Z,8.10
2023-11-15T00:19:53.324Z,8.10
2023-11-15T00:22:20.432Z,8.10
2023-11-15T00:24:47.486Z,8.20
2023-11-15T00:27:14.904Z,8.20
2023-11-15T00:29:42.130Z,8.20
2023-11-15T00:32:09.822Z,8.20
2023-11-15T00:34:37.124Z,8.20
2023-11-15T00:37:04.964Z,8.20
2023-11-15T00:39:32.628Z,8.20
2023-11-15T00:41:59.795Z,8.20
2023-11-15T00:44:26.757Z,8.20
2023-11-15T00:46:53.743Z,8.20
2023-11-15T00:49:21.472Z,8.20
2023-11-15T00:51:48.947Z,8.20
2023-11-15T00:54:16.269Z,8.10
2023-11-15T00:56:43.551Z,8.20
2023-11-15T00:59:14.121Z,8.10
2023-11-15T01:01:41.155Z,8.10
2023-11-15T01:04:08.904Z,8.10
2023-11-15T01:06:35.852Z,8.00
2023-11-15T01:09:04.835Z,7.90
2023-11-15T01:11:32.910Z,7.80
2023-11-15T01:14:00.223Z,7.70
2023-11-15T01:16:28.132Z,7.70
2023-11-15T01:18:55.646Z,7.60
2023-11-15T01:21:22.723Z,7.60
2023-11-15T01:23:49.830Z,7.50
2023-11-15T01:26:17.117Z,7.50
2023-11-15T01:28:44.143Z,7.40
2023-11-15T01:31:11.597Z,7.30
2023-11-15T01:33:39.061Z,7.30
2023-11-15T01:36:06.895Z,7.30
2023-11-15T01:38:37.638Z,7.30
2023-11-15T01:41:07.987Z,7.20
2023-11-15T01:43:35.942Z,7.20
2023-11-15T01:46:05.200Z,7.20
2023-11-15T01:48:33.237Z,7.20
2023-11-15T01:51:02.935Z,7.20
2023-11-15T01:53:31.932Z,7.20
2023-11-15T01:55:59.449Z,7.20
2023-11-15T01:58:29.418Z,7.20
2023-11-15T02:00:56.471Z,7.20
2023-11-15T02:03:23.539Z,7.20
2023-11-15T02:05:54.358Z,7.30
2023-11-15T02:08:21.699Z,7.30
2023-11-15T02:10:49.446Z,7.40
2023-11-15T02:13:27.327Z,7.50
2023-11-15T02:15:57.891Z,7.50
2023-11-15T02:18:27.289Z,7.60
2023-11-15T02:20:54.963Z,7.70
2023-11-15T02:23:23.268Z,7.70
2023-11-15T02:25:54.097Z,7.80
2023-11-15T02:28:22.124Z,7.90
2023-11-15T02:30:50.214Z,8.00
2023-11-15T02:33:17.665Z,8.00
2023-11-15T02:35:45.073Z,8.10
2023-11-15T02:38:12.052Z,8.10
2023-11-15T02:40:41.214Z,8.10
2023-11-15T02:43:12.567Z,8.20
2023-11-15T02:45:39.770Z,8.30
2023-11-15T02:48:06.772Z,8.20
2023-11-15T02:50:34.338Z,8.30
2023-11-15T02:53:01.797Z,8.30
2023-11-15T02:55:29.014Z,8.30
2023-11-15T02:57:56.264Z,8.30
2023-11-15T03:00:23.233Z,8.40
2023-11-15T03:02:50.761Z,8.30
2023-11-15T03:05:18.539Z,8.40
2023-11-15T03:07:45.855Z,8.40
2023-11-15T03:10:13.307Z,8.40
2023-11-15T03:12:40.778Z,8.40
2023-11-15T03:15:08.897Z,8.40
2023-11-15T03:17:36.208Z,8.40
2023-11-15T03:20:04.183Z,8.40
2023-11-15T03:22:31.161Z,8.40
2023-11-15T03:24:58.363Z,8.40
2023-11-15T03:27:25.682Z,8.50
2023-11-15T03:29:52.675Z,8.50
2023-11-15T03:32:20.741Z,8.50
2023-11-15T03:34:47.943Z,8.50
2023-11-15T03:37:15.934Z,8.40
2023-11-15T03:39:43.356Z,8.50
2023-11-15T03:42:10.580Z,8.50
2023-11-15T03:44:37.673Z,8.40
2023-11-15T03:47:05.364Z,8.50
2023-11-15T03:49:32.370Z,8.40
2023-11-15T03:51:59.396Z,8.50
2023-11-15T03:54:26.351Z,8.40
2023-11-15T03:56:53.359Z,8.50
2023-11-15T03:59:20.580Z,8.40
2023-11-15T04:01:55.289Z,8.50
2023-11-15T04:04:26.254Z,8.50
2023-11-15T04:06:53.823Z,8.40
2023-11-15T04:09:20.981Z,8.50
2023-11-15T04:11:49.965Z,8.50
2023-11-15T04:14:19.762Z,8.50
2023-11-15T04:16:46.688Z,8.50
2023-11-15T04:19:15.617Z,8.50
2023-11-15T04:21:42.945Z,8.50
2023-11-15T04:24:11.747Z,8.50
2023-11-15T04:26:39.429Z,8.50
2023-11-15T04:29:06.414Z,8.50
2023-11-15T04:31:37.018Z,8.50
2023-11-15T04:34:04.678Z,8.60
2023-11-15T04:36:36.397Z,8.50
2023-11-15T04:39:11.873Z,8.40
2023-11-15T04:41:39.175Z,8.50
2023-11-15T04:44:06.160Z,8.50
2023-11-15T04:46:35.424Z,8.40
2023-11-15T04:49:02.740Z,8.40
2023-11-15T04:51:30.108Z,8.40
2023-11-15T04:53:57.059Z,8.50
2023-11-15T04:56:24.448Z,8.40
2023-11-15T04:58:53.680Z,8.30
2023-11-15T05:01:21.510Z,8.40
2023-11-15T05:03:48.652Z,8.40
2023-11-15T05:06:16.192Z,8.40
2023-11-15T05:08:43.245Z,8.40
2023-11-15T05:11:10.667Z,8.40
2023-11-15T05:13:37.671Z,8.40
2023-11-15T05:16:06.894Z,8.40
2023-11-15T05:18:34.311Z,8.40
2023-11-15T05:21:01.634Z,8.40
2023-11-15T05:23:28.950Z,8.40
2023-11-15T05:25:58.492Z,8.30
2023-11-15T05:28:25.630Z,8.40
2023-11-15T05:30:52.715Z,8.30
2023-11-15T05:33:20.206Z,8.30
2023-11-15T05:35:47.601Z,8.30
2023-11-15T05:38:14.586Z,8.30
2023-11-15T05:40:41.953Z,8.30
2023-11-15T05:43:09.196Z,8.30
2023-11-15T05:45:36.108Z,8.30
2023-11-15T05:48:06.192Z,8.30
2023-11-15T05:50:33.489Z,8.30
2023-11-15T05:53:02.976Z,8.30
2023-11-15T05:55:30.037Z,8.30
2023-11-15T05:57:56.904Z,8.30
2023-11-15T06:00:24.092Z,8.40
2023-11-15T06:02:52.684Z,8.40
2023-11-15T06:05:20.629Z,8.40
2023-11-15T06:07:47.638Z,8.40
2023-11-15T06:10:15.842Z,8.40
2023-11-15T06:12:43.001Z,8.40
2023-11-15T06:15:11.925Z,8.40
2023-11-15T06:17:40.745Z,8.40
2023-11-15T06:20:10.768Z,8.40
2023-11-15T06:22:41.767Z,8.40
2023-11-15T06:25:09.888Z,8.40
2023-11-15T06:27:38.963Z,8.40
2023-11-15T06:30:10.929Z,8.40
2023-11-15T06:32:38.292Z,8.40
2023-11-15T06:35:06.305Z,8.40
2023-11-15T06:37:35.346Z,8.40
2023-11-15T06:40:09.263Z,8.40
2023-11-15T06:42:37.239Z,8.40
2023-11-15T06:45:05.745Z,8.40
2023-11-15T06:47:33.603Z,8.40
2023-11-15T06:50:02.613Z,8.40
2023-11-15T06:52:30.070Z,8.40
2023-11-15T06:54:57.400Z,8.40
2023-11-15T06:57:24.508Z,8.40
2023-11-15T06:59:51.929Z,8.30
2023-11-15T07:02:19.411Z,8.30
2023-11-15T07:04:46.433Z,8.30
2023-11-15T07:07:13.903Z,8.30
2023-11-15T07:09:40.849Z,8.30
2023-11-15T07:12:09.336Z,8.20
2023-11-15T07:14:37.966Z,8.10
2023-11-15T07:17:05.161Z,8.00
2023-11-15T07:19:34.745Z,8.00
2023-11-15T07:22:01.979Z,7.90
2023-11-15T07:24:29.520Z,7.90
2023-11-15T07:26:59.221Z,8.00
2023-11-15T07:29:27.508Z,8.00
2023-11-15T07:31:55.045Z,8.10
2023-11-15T07:34:23.914Z,8.10
2023-11-15T07:36:52.481Z,8.10
2023-11-15T07:39:20.479Z,8.20
2023-11-15T07:41:47.815Z,8.20
2023-11-15T07:44:18.489Z,8.30
2023-11-15T07:46:51.840Z,8.30
2023-11-15T07:49:20.070Z,8.30
2023-11-15T07:51:47.812Z,8.40
2023-11-15T07:54:16.220Z,8.50
2023-11-15T07:56:44.427Z,8.50
2023-11-15T07:59:12.346Z,8.50
2023-11-15T08:01:46.832Z,8.50
2023-11-15T08:04:16.537Z,8.50
2023-11-15T08:06:44.691Z,8.60
2023-11-15T08:09:26.082Z,8.60
2023-11-15T08:11:56.258Z,8.60
2023-11-15T08:14:23.746Z,8.60
2023-11-15T08:16:51.570Z,8.60
2023-11-15T08:19:22.005Z,8.60
2023-11-15T08:21:50.145Z,8.60
2023-11-15T08:24:23.821Z,8.60
2023-11-15T08:26:55.106Z,8.60
2023-11-15T08:29:24.477Z,8.60
2023-11-15T08:31:52.960Z,8.70
2023-11-15T08:34:24.045Z,8.60
2023-11-15T08:36:52.285Z,8.60
2023-11-15T08:39:19.497Z,8.60
2023-11-15T08:41:48.172Z,8.70
2023-11-15T08:44:17.331Z,8.80
2023-11-15T08:46:46.490Z,8.80
2023-11-15T08:49:15.305Z,8.70
2023-11-15T08:51:48.831Z,8.70
2023-11-15T08:54:17.689Z,8.80
2023-11-15T08:56:46.624Z,8.80
2023-11-15T08:59:16.279Z,8.80
2023-11-15T09:01:44.607Z,8.80
2023-11-15T09:04:14.435Z,8.80
2023-11-15T09:06:48.419Z,8.80
2023-11-15T09:09:17.008Z,8.80
2023-11-15T09:11:46.079Z,8.90
2023-11-15T09:14:15.676Z,8.90
2023-11-15T09:16:46.080Z,8.80
2023-11-15T09:19:17.834Z,8.80
2023-11-15T09:21:49.168Z,8.70
2023-11-15T09:24:24.007Z,8.80
2023-11-15T09:26:52.575Z,8.70
2023-11-15T09:29:21.139Z,8.80
2023-11-15T09:31:48.588Z,8.80
2023-11-15T09:34:15.906Z,8.70
2023-11-15T09:36:43.778Z,8.80
2023-11-15T09:39:11.702Z,8.80
2023-11-15T09:41:39.376Z,8.80
2023-11-15T09:44:11.022Z,8.80
2023-11-15T09:46:40.699Z,8.80
2023-11-15T09:49:09.796Z,8.80
2023-11-15T09:51:39.179Z,8.80
2023-11-15T09:54:16.039Z,8.70
2023-11-15T09:56:47.346Z,8.80
2023-11-15T09:59:19.499Z,8.80
2023-11-15T10:01:51.789Z,8.70
2023-11-15T10:04:29.445Z,8.80
2023-11-15T10:07:03.900Z,8.70
2023-11-15T10:09:41.956Z,8.80
2023-11-15T10:12:10.374Z,8.80
2023-11-15T10:14:55.523Z,8.80
2023-11-15T10:17:44.933Z,8.80
2023-11-15T10:20:23.075Z,8.80
2023-11-15T10:22:52.367Z,8.80
2023-11-15T10:25:20.819Z,8.80
2023-11-15T10:27:48.240Z,8.80
2023-11-15T10:30:21.883Z,8.80
2023-11-15T10:32:51.054Z,8.90
2023-11-15T10:35:30.113Z,9.10
2023-11-15T10:37:58.679Z,9.20
2023-11-15T10:40:27.419Z,9.30
2023-11-15T10:42:56.682Z,9.40
2023-11-15T10:45:29.373Z,9.50
2023-11-15T10:48:17.780Z,9.60
2023-11-15T10:50:48.214Z,9.80
2023-11-15T10:53:18.702Z,10.10
2023-11-15T10:55:47.182Z,10.30
2023-11-15T10:58:18.652Z,10.40
2023-11-15T11:00:48.474Z,10.60
2023-11-15T11:03:15.657Z,10.50
2023-11-15T11:05:57.253Z,10.40
2023-11-15T11:08:55.867Z,10.40
2023-11-15T11:11:34.937Z,10.30
2023-11-15T11:14:28.881Z,10.10
2023-11-15T11:16:58.185Z,10.00
2023-11-15T11:19:27.646Z,10.00
2023-11-15T11:22:00.821Z,9.70
2023-11-15T11:24:31.551Z,9.60
2023-11-15T11:27:18.699Z,9.60
2023-11-15T11:30:03.547Z,9.50
2023-11-15T11:32:36.645Z,9.40
2023-11-15T11:35:06.948Z,9.40
2023-11-15T11:37:49.613Z,9.40
2023-11-15T11:40:19.117Z,9.40
2023-11-15T11:42:49.998Z,9.30
2023-11-15T11:45:17.944Z,9.30
2023-11-15T11:47:50.254Z,9.20
2023-11-15T11:50:24.299Z,9.20
2023-11-15T11:53:00.688Z,9.30
2023-11-15T11:55:33.259Z,9.40
2023-11-15T11:58:05.634Z,9.30
2023-11-15T12:00:32.971Z,9.40
2023-11-15T12:03:03.529Z,9.40
2023-11-15T12:05:33.671Z,9.50
2023-11-15T12:08:03.680Z,9.50
2023-11-15T12:10:30.839Z,9.60
2023-11-15T12:13:01.063Z,9.50
2023-11-15T12:15:28.904Z,9.30
2023-11-15T12:18:01.315Z,9.20
2023-11-15T12:20:34.782Z,9.10
2023-11-15T12:23:13.906Z,9.10
2023-11-15T12:25:49.824Z,9.00
2023-11-15T12:28:22.885Z,8.80
2023-11-15T12:30:52.509Z,8.70
2023-11-15T12:33:20.325Z,8.60
2023-11-15T12:35:49.655Z,8.50
2023-11-15T12:38:16.513Z,8.40
2023-11-15T12:40:45.793Z,8.40
2023-11-15T12:43:26.653Z,8.40
2023-11-15T12:46:04.199Z,8.50
2023-11-15T12:48:31.960Z,8.50
2023-11-15T12:51:03.754Z,8.50
2023-11-15T12:53:37.313Z,8.60
2023-11-15T12:56:05.344Z,8.80
2023-11-15T12:58:32.264Z,8.80
2023-11-15T13:01:08.610Z,8.90
2023-11-15T13:03:38.219Z,8.90
2023-11-15T13:06:27.162Z,9.00
2023-11-15T13:08:57.270Z,9.00
2023-11-15T13:11:27.437Z,9.00
2023-11-15T13:13:55.345Z,9.00
2023-11-15T13:16:25.587Z,8.90
2023-11-15T13:18:52.672Z,8.80
2023-11-15T13:21:23.666Z,8.80
2023-11-15T13:23:54.016Z,8.80
2023-11-15T13:26:22.497Z,8.70
2023-11-15T13:28:50.588Z,8.70
2023-11-15T13:31:26.208Z,8.60
2023-11-15T13:33:56.876Z,8.50
2023-11-15T13:36:25.915Z,8.50
2023-11-15T13:38:53.383Z,8.50
2023-11-15T13:41:23.842Z,8.40
2023-11-15T13:43:53.628Z,8.50
2023-11-15T13:46:29.600Z,8.50
2023-11-15T13:49:03.384Z,8.50
2023-11-15T13:51:31.620Z,8.50
2023-11-15T13:53:58.833Z,8.60
2023-11-15T13:56:26.002Z,8.60
2023-11-15T13:58:52.998Z,8.50
2023-11-15T14:01:20.101Z,8.50
2023-11-15T14:03:47.311Z,8.40
2023-11-15T14:06:15.825Z,8.40
2023-11-15T14:08:51.515Z,8.30
2023-11-15T14:11:29.294Z,8.30
2023-11-15T14:13:56.213Z,8.30
2023-11-15T14:16:24.583Z,8.30
2023-11-15T14:18:51.846Z,8.30
2023-11-15T14:21:19.510Z,8.20
2023-11-15T14:23:46.428Z,8.20
2023-11-15T14:26:15.571Z,8.10
2023-11-15T14:28:44.931Z,8.10
2023-11-15T14:31:12.347Z,8.00
2023-11-15T14:33:40.409Z,8.00
2023-11-15T14:36:08.840Z,7.90
2023-11-15T14:38:36.941Z,7.90
2023-11-15T14:41:05.510Z,7.90
2023-11-15T14:43:33.842Z,7.90
2023-11-15T14:46:01.246Z,7.90
2023-11-15T14:48:29.011Z,7.90
2023-11-15T14:50:58.298Z,7.80
2023-11-15T14:53:25.690Z,7.90
2023-11-15T14:55:53.336Z,8.00
2023-11-15T14:58:20.246Z,8.10
2023-11-15T15:00:48.549Z,8.20
2023-11-15T15:03:16.370Z,8.30
2023-11-15T15:05:43.717Z,8.50
2023-11-15T15:08:13.599Z,8.60
2023-11-15T15:10:41.726Z,8.70
2023-11-15T15:13:10.610Z,8.70
2023-11-15T15:15:39.825Z,8.70
2023-11-15T15:18:13.710Z,8.70
2023-11-15T15:20:46.215Z,8.60
2023-11-15T15:23:14.157Z,8.50
2023-11-15T15:25:43.943Z,8.40
2023-11-15T15:28:11.263Z,8.30
2023-11-15T15:30:38.977Z,8.20
2023-11-15T15:33:08.628Z,8.10
2023-11-15T15:35:36.609Z,7.90
2023-11-15T15:38:04.264Z,7.90
2023-11-15T15:40:38.148Z,7.70
2023-11-15T15:43:05.445Z,7.60
2023-11-15T15:45:32.487Z,7.50
2023-11-15T15:48:00.668Z,7.40
2023-11-15T15:50:28.402Z,7.40
2023-11-15T15:52:56.590Z,7.30
2023-11-15T15:55:24.023Z,7.20
2023-11-15T15:57:51.363Z,7.20
2023-11-15T16:00:19.379Z,7.10
2023-11-15T16:02:48.191Z,7.10
2023-11-15T16:05:19.287Z,7.00
2023-11-15T16:07:46.429Z,7.00
2023-11-15T16:10:16.146Z,6.90
2023-11-15T16:12:43.116Z,6.90
2023-11-15T16:15:17.985Z,6.80
2023-11-15T16:17:45.876Z,6.90
2023-11-15T16:20:14.100Z,6.90
2023-11-15T16:22:41.287Z,6.90
2023-11-15T16:25:09.825Z,6.90
2023-11-15T16:27:38.264Z,6.90
2023-11-15T16:30:07.069Z,6.90
2023-11-15T16:32:37.151Z,6.90
2023-11-15T16:35:06.634Z,6.90
2023-11-15T16:37:37.001Z,6.90
2023-11-15T16:40:07.215Z,6.90
2023-11-15T16:42:34.801Z,7.00
2023-11-15T16:45:02.630Z,7.00
2023-11-15T16:47:30.401Z,7.10
2023-11-15T16:49:59.305Z,7.10
2023-11-15T16:52:26.361Z,7.10
2023-11-15T16:54:53.812Z,7.20
2023-11-15T16:57:20.916Z,7.30
2023-11-15T16:59:50.613Z,7.30
2023-11-15T17:02:18.940Z,7.30
2023-11-15T17:04:46.076Z,7.40
2023-11-15T17:07:13.251Z,7.40
2023-11-15T17:09:42.906Z,7.40
2023-11-15T17:12:11.036Z,7.40
2023-11-15T17:14:38.049Z,7.50
2023-11-15T17:17:05.920Z,7.50
2023-11-15T17:19:33.720Z,7.60
2023-11-15T17:22:00.808Z,7.70
2023-11-15T17:24:28.485Z,7.70
2023-11-15T17:26:56.443Z,7.80
2023-11-15T17:29:24.082Z,7.70
2023-11-15T17:31:52.580Z,7.70
2023-11-15T17:34:20.553Z,7.80
2023-11-15T17:36:49.954Z,7.80
2023-11-15T17:39:17.013Z,7.80
2023-11-15T17:41:44.233Z,7.80
2023-11-15T17:44:13.739Z,7.90
2023-11-15T17:46:44.197Z,7.90
2023-11-15T17:49:12.533Z,7.90
2023-11-15T17:51:39.987Z,7.90
2023-11-15T17:54:09.935Z,7.80
2023-11-15T17:56:37.724Z,7.80
2023-11-15T17:59:06.419Z,7.90
2023-11-15T18:01:34.963Z,7.90
2023-11-15T18:04:04.122Z,7.90
2023-11-15T18:06:32.690Z,7.90
2023-11-15T18:08:59.821Z,7.90
2023-11-15T18:11:26.864Z,7.90
2023-11-15T18:13:56.666Z,7.80
2023-11-15T18:16:28.274Z,7.80
2023-11-15T18:18:57.104Z,7.80
2023-11-15T18:21:25.232Z,7.70
2023-11-15T18:23:52.352Z,7.80
2023-11-15T18:26:24.461Z,7.70
2023-11-15T18:28:52.095Z,7.80
2023-11-15T18:31:19.402Z,7.80
2023-11-15T18:33:46.755Z,7.70
2023-11-15T18:36:14.322Z,7.70
2023-11-15T18:38:41.406Z,7.70
2023-11-15T18:41:08.956Z,7.80
2023-11-15T18:43:36.545Z,7.70
2023-11-15T18:46:04.305Z,7.80
2023-11-15T18:48:33.528Z,7.80
2023-11-15T18:51:00.827Z,7.80
2023-11-15T18:53:27.880Z,7.80
2023-11-15T18:55:55.157Z,7.80
2023-11-15T18:58:22.380Z,7.90
2023-11-15T19:00:49.831Z,7.80
2023-11-15T19:03:18.981Z,7.70
2023-11-15T19:05:47.596Z,7.70
2023-11-15T19:08:15.684Z,7.80
2023-11-15T19:10:42.772Z,7.70
2023-11-15T19:13:09.711Z,7.70
2023-11-15T19:15:39.358Z,7.60
2023-11-15T19:18:10.081Z,7.60
2023-11-15T19:20:40.412Z,7.50
2023-11-15T19:23:10.128Z,7.30
2023-11-15T19:25:38.685Z,7.30
2023-11-15T19:28:09.254Z,7.20
2023-11-15T19:30:38.760Z,7.20
2023-11-15T19:33:08.574Z,7.20
2023-11-15T19:35:37.379Z,7.30
2023-11-15T19:38:04.741Z,7.30
2023-11-15T19:40:31.622Z,7.30
2023-11-15T19:42:58.994Z,7.20
2023-11-15T19:45:27.001Z,7.20
2023-11-15T19:47:54.068Z,7.10
2023-11-15T19:50:21.923Z,7.10
2023-11-15T19:52:49.725Z,7.10
2023-11-15T19:55:17.069Z,7.10
2023-11-15T19:57:44.264Z,7.20
2023-11-15T20:00:13.484Z,7.20
2023-11-15T20:02:46.694Z,7.20
2023-11-15T20:05:15.592Z,7.20
2023-11-15T20:07:46.105Z,7.30
2023-11-15T20:10:14.586Z,7.20
2023-11-15T20:12:44.993Z,7.20
2023-11-15T20:15:14.558Z,7.20
2023-11-15T20:17:43.483Z,7.30
2023-11-15T20:20:11.571Z,7.30
2023-11-15T20:22:45.946Z,7.30
2023-11-15T20:25:20.782Z,7.30
2023-11-15T20:27:48.156Z,7.30
2023-11-15T20:30:15.949Z,7.30
2023-11-15T20:32:43.364Z,7.30
2023-11-15T20:35:11.983Z,7.30
2023-11-15T20:37:40.624Z,7.30
2023-11-15T20:40:08.931Z,7.30
2023-11-15T20:42:36.213Z,7.30
2023-11-15T20:45:03.365Z,7.30
2023-11-15T20:47:33.318Z,7.20
2023-11-15T20:50:00.552Z,7.30
2023-11-15T20:52:27.609Z,7.20
2023-11-15T20:54:54.593Z,7.20
2023-11-15T20:57:24.170Z,7.20
2023-11-15T20:59:53.286Z,7.20
2023-11-15T21:02:20.141Z,7.20
2023-11-15T21:04:47.968Z,7.10
2023-11-15T21:07:17.028Z,7.10
2023-11-15T21:09:43.996Z,7.10
2023-11-15T21:12:12.310Z,7.10
2023-11-15T21:14:40.277Z,7.10
2023-11-15T21:17:07.830Z,7.10
2023-11-15T21:19:34.806Z,7.10
2023-11-15T21:22:01.999Z,7.10
2023-11-15T21:24:32.751Z,7.10
2023-11-15T21:26:59.859Z,7.20
2023-11-15T21:29:26.826Z,7.20
2023-11-15T21:31:54.891Z,7.20
2023-11-15T21:34:21.978Z,7.20
2023-11-15T21:36:48.996Z,7.20
2023-11-15T21:39:16.199Z,7.20
2023-11-15T21:41:45.378Z,7.20
2023-11-15T21:44:14.789Z,7.20
2023-11-15T21:46:41.631Z,7.20
2023-11-15T21:49:08.525Z,7.20
2023-11-15T21:51:35.913Z,7.20
2023-11-15T21:54:03.760Z,7.20
2023-11-15T21:56:30.991Z,7.20
2023-11-15T21:58:59.315Z,7.20
2023-11-15T22:01:27.884Z,7.20
2023-11-15T22:03:54.901Z,7.20
2023-11-15T22:06:23.369Z,7.20
2023-11-15T22:08:51.144Z,7.20
2023-11-15T22:11:18.312Z,7.30
2023-11-15T22:13:45.367Z,7.20
2023-11-15T22:16:14.823Z,7.20
2023-11-15T22:18:42.301Z,7.20
2023-11-15T22:21:09.425Z,7.20
2023-11-15T22:23:36.382Z,7.20
2023-11-15T22:26:04.048Z,7.20
2023-11-15T22:28:32.148Z,7.20
2023-11-15T22:30:59.358Z,7.20
2023-11-15T22:33:26.313Z,7.20
2023-11-15T22:35:53.279Z,7.20
2023-11-15T22:38:20.268Z,7.20
2023-11-15T22:40:47.667Z,7.20
2023-11-15T22:43:14.626Z,7.20
2023-11-15T22:45:42.517Z,7.20
2023-11-15T22:48:10.004Z,7.20
2023-11-15T22:50:40.570Z,7.20
2023-11-15T22:53:08.346Z,7.20
2023-11-15T22:55:36.542Z,7.20
2023-11-15T22:58:03.637Z,7.20
2023-11-15T23:00:34.654Z,7.10
2023-11-15T23:03:13.399Z,7.20
2023-11-15T23:05:42.116Z,7.10
2023-11-15T23:08:14.161Z,7.10
2023-11-15T23:10:41.642Z,7.10
2023-11-15T23:13:08.953Z,7.10
2023-11-15T23:15:37.178Z,7.10
2023-11-15T23:18:08.414Z,7.10
2023-11-15T23:20:39.471Z,7.10
2023-11-15T23:23:08.268Z,7.00
2023-11-15T23:25:35.654Z,7.00
2023-11-15T23:28:05.566Z,7.00
2023-11-15T23:30:36.374Z,7.10
2023-11-15T23:33:04.549Z,7.00
2023-11-15T23:35:33.633Z,7.00
2023-11-15T23:38:01.470Z,7.00
2023-11-15T23:40:30.490Z,7.00
2023-11-15T23:43:02.056Z,6.90
2023-11-15T23:45:29.560Z,6.90
2023-11-15T23:47:57.349Z,6.90
2023-11-15T23:50:24.448Z,6.90
2023-11-15T23:52:53.021Z,6.90
2023-11-15T23:55:21.349Z,7.00
2023-11-15T23:57:49.323Z,6.90
